Time;durP1;ratioP1;P1;durP2;ratioP2;P2;SDS_P1;SDS_P2;PMS_P1;PMS_P2;Temp;Humidity;BMP_temperature;BMP_pressure;BME280_temperature;BME280_humidity;BME280_pressure;Samples;Min_cycle;Max_cycle;Signal;HPM_P1;HPM_P2
2020/12/29 00:00:06;;;;;;;4.45;3.77;;;;;;;5.86;80.01;97984.87;2096591;84;25812;-78
2020/12/29 00:03:07;;;;;;;4.47;3.80;;;;;;;5.86;80.21;97972.48;2096535;84;27624;-78
2020/12/29 00:06:08;;;;;;;5.22;3.70;;;;;;;5.92;80.13;97973.92;2096534;84;25816;-78
2020/12/29 00:09:10;;;;;;;4.12;3.58;;;;;;;5.95;80.11;97959.21;2096548;84;25916;-78
2020/12/29 00:12:11;;;;;;;5.28;4.22;;;;;;;5.99;80.22;97969.16;2096623;84;25802;-77
2020/12/29 00:15:12;;;;;;;4.92;3.95;;;;;;;5.96;80.57;97965.34;2096576;84;26241;-77
2020/12/29 00:18:13;;;;;;;4.92;4.08;;;;;;;5.94;80.88;97969.86;2096639;84;27475;-77
2020/12/29 00:21:20;;;;;;;4.78;3.87;;;;;;;5.96;80.92;97981.20;2096558;84;25931;-78
2020/12/29 00:24:21;;;;;;;4.93;4.30;;;;;;;5.92;81.18;97963.34;2096853;84;25892;-80
2020/12/29 00:27:22;;;;;;;4.95;4.00;;;;;;;5.89;81.58;97964.84;2096650;84;25927;-80
2020/12/29 00:30:24;;;;;;;4.42;3.62;;;;;;;5.90;81.82;97963.90;2096602;84;26566;-80
2020/12/29 00:33:25;;;;;;;5.42;3.85;;;;;;;5.92;81.98;97944.00;2096562;84;27584;-80
2020/12/29 00:36:26;;;;;;;5.17;4.15;;;;;;;5.97;81.81;97932.66;2096683;84;25886;-81
2020/12/29 00:39:27;;;;;;;5.17;4.45;;;;;;;5.96;82.02;97936.25;2098375;84;26171;-80
2020/12/29 00:42:34;;;;;;;5.33;3.95;;;;;;;5.96;82.18;97933.60;2097781;84;25868;-80
2020/12/29 00:45:35;;;;;;;4.30;3.90;;;;;;;5.93;82.35;97922.75;2097849;84;25801;-80
2020/12/29 00:48:37;;;;;;;5.30;4.17;;;;;;;5.92;82.50;97912.27;2098051;84;27409;-80
2020/12/29 00:51:38;;;;;;;4.58;4.08;;;;;;;5.86;83.00;97921.41;2098256;84;25784;-80
2020/12/29 00:54:39;;;;;;;4.83;4.33;;;;;;;5.79;83.52;97916.11;2099280;84;31061;-79
2020/12/29 00:57:41;;;;;;;4.72;4.22;;;;;;;5.74;83.93;97906.65;2099421;84;25338;-81
2020/12/29 01:00:42;;;;;;;4.42;3.70;;;;;;;5.71;84.26;97909.95;2097299;84;25787;-80
2020/12/29 01:03:43;;;;;;;4.75;4.25;;;;;;;5.72;84.26;97900.62;2096664;84;28286;-80
2020/12/29 01:06:44;;;;;;;5.20;4.42;;;;;;;5.69;84.68;97892.03;2096680;84;25780;-80
2020/12/29 01:09:45;;;;;;;5.00;4.45;;;;;;;5.67;84.98;97882.01;2096633;84;25822;-80
2020/12/29 01:12:47;;;;;;;5.05;4.55;;;;;;;5.62;85.31;97880.13;2096733;84;25872;-80
2020/12/29 01:15:49;;;;;;;6.37;5.12;;;;;;;5.55;85.82;97879.17;2096527;84;25847;-80
2020/12/29 01:18:54;;;;;;;6.58;5.60;;;;;;;5.51;86.21;97874.99;2096602;84;27709;-80
2020/12/29 01:22:00;;;;;;;5.90;5.10;;;;;;;5.43;86.81;97872.82;2096845;84;26318;-80
2020/12/29 01:25:02;;;;;;;7.33;4.95;;;;;;;5.40;86.87;97861.59;2096801;84;26197;-80
2020/12/29 01:28:03;;;;;;;5.50;4.62;;;;;;;5.39;87.08;97867.31;2097486;84;25740;-80
2020/12/29 01:31:05;;;;;;;4.72;4.33;;;;;;;5.42;87.06;97855.75;2097382;84;25845;-79
2020/12/29 01:34:06;;;;;;;5.12;4.60;;;;;;;5.48;86.43;97856.70;2096904;84;27560;-80
2020/12/29 01:37:07;;;;;;;5.17;3.98;;;;;;;5.47;86.56;97841.78;2096866;84;25779;-80
2020/12/29 01:40:09;;;;;;;5.45;4.72;;;;;;;5.45;86.66;97844.98;2096709;84;26721;-79
2020/12/29 01:43:11;;;;;;;6.08;5.47;;;;;;;5.44;86.72;97832.70;2096766;84;26223;-80
2020/12/29 01:46:12;;;;;;;5.78;4.90;;;;;;;5.47;86.34;97836.95;2096707;84;25773;-80
2020/12/29 01:49:13;;;;;;;6.62;5.00;;;;;;;5.50;86.02;97837.62;2096731;84;27377;-80
2020/12/29 01:52:15;;;;;;;4.47;4.08;;;;;;;5.51;86.18;97825.27;2096561;84;25751;-80
2020/12/29 01:55:16;;;;;;;4.33;3.92;;;;;;;5.60;85.40;97833.97;2096716;84;25963;-80
2020/12/29 01:58:19;;;;;;;7.08;5.28;;;;;;;5.65;85.27;97832.34;2096761;84;25754;-80
2020/12/29 02:01:20;;;;;;;5.78;5.28;;;;;;;5.71;84.84;97815.66;2096728;84;25745;-80
2020/12/29 02:04:22;;;;;;;5.15;4.08;;;;;;;5.76;84.65;97819.34;2096721;84;27522;-80
2020/12/29 02:07:24;;;;;;;6.37;4.72;;;;;;;5.76;84.42;97824.62;2096702;84;25820;-80
2020/12/29 02:10:25;;;;;;;5.55;4.92;;;;;;;5.73;84.56;97815.55;2096675;84;26931;-80
2020/12/29 02:13:27;;;;;;;6.83;4.22;;;;;;;5.71;84.82;97818.75;2096684;84;25849;-80
2020/12/29 02:16:28;;;;;;;4.92;3.90;;;;;;;5.75;84.30;97806.58;2096736;84;25801;-80
2020/12/29 02:19:29;;;;;;;4.97;4.47;;;;;;;5.79;84.26;97812.52;2096720;84;26869;-80
2020/12/29 02:22:31;;;;;;;5.10;4.60;;;;;;;5.74;84.53;97806.69;2096642;84;25765;-80
2020/12/29 02:25:32;;;;;;;6.55;4.92;;;;;;;5.74;84.57;97798.75;2096721;84;26005;-80
2020/12/29 02:28:33;;;;;;;4.95;4.53;;;;;;;5.66;84.75;97799.23;2096765;84;25746;-80
2020/12/29 02:31:35;;;;;;;5.15;4.67;;;;;;;5.57;85.08;97782.61;2096691;84;26104;-80
2020/12/29 02:34:39;;;;;;;5.87;4.62;;;;;;;5.55;84.91;97782.72;2096731;84;27659;-80
2020/12/29 02:37:40;;;;;;;5.28;4.47;;;;;;;5.52;85.21;97781.57;2096655;84;26217;-77
2020/12/29 02:40:41;;;;;;;4.93;4.13;;;;;;;5.53;85.12;97763.94;2096685;84;31014;-77
2020/12/29 02:43:43;;;;;;;5.60;4.55;;;;;;;5.58;84.89;97771.10;2096783;84;25761;-77
2020/12/29 02:46:50;;;;;;;5.25;4.75;;;;;;;5.64;84.33;97758.83;2096729;84;26083;-77
2020/12/29 02:49:51;;;;;;;4.95;4.42;;;;;;;5.68;84.12;97751.56;2096844;84;27821;-77
2020/12/29 02:52:53;;;;;;;5.72;4.85;;;;;;;5.61;84.40;97748.44;2096706;84;25892;-78
2020/12/29 02:55:54;;;;;;;6.15;5.55;;;;;;;5.63;84.22;97745.23;2096737;84;25759;-77
2020/12/29 02:58:55;;;;;;;7.55;5.08;;;;;;;5.61;84.35;97730.42;2096750;84;25745;-77
2020/12/29 03:01:57;;;;;;;5.70;5.20;;;;;;;5.71;83.67;97724.92;2096650;84;25689;-78
2020/12/29 03:05:01;;;;;;;5.85;4.58;;;;;;;5.71;83.77;97740.32;2096650;84;27509;-77
2020/12/29 03:08:01;;;;;;;5.97;5.28;;;;;;;5.79;83.10;97723.97;2096529;84;26255;-77
2020/12/29 03:11:04;;;;;;;6.78;5.97;;;;;;;5.83;83.00;97729.91;2096775;84;26036;-77
2020/12/29 03:14:08;;;;;;;6.12;5.20;;;;;;;5.83;82.90;97737.38;2096683;84;25879;-79
2020/12/29 03:17:09;;;;;;;6.20;5.60;;;;;;;5.86;82.50;97721.80;2096678;84;25989;-80
2020/12/29 03:20:10;;;;;;;5.65;5.00;;;;;;;5.86;82.64;97722.63;2096586;84;28201;-79
2020/12/29 03:23:11;;;;;;;6.07;5.47;;;;;;;5.85;82.43;97719.61;2096664;84;34925;-80
2020/12/29 03:26:12;;;;;;;6.83;5.30;;;;;;;5.86;82.41;97719.16;2096729;84;25822;-80
2020/12/29 03:29:14;;;;;;;6.17;5.33;;;;;;;5.80;82.74;97723.02;2096688;84;25809;-80
2020/12/29 03:32:15;;;;;;;6.42;5.30;;;;;;;5.85;82.32;97719.61;2096625;84;25732;-80
2020/12/29 03:35:16;;;;;;;7.53;6.20;;;;;;;5.87;82.16;97707.15;2096596;84;27707;-79
2020/12/29 03:38:18;;;;;;;5.65;5.12;;;;;;;5.94;81.91;97712.91;2096857;84;25761;-80
2020/12/29 03:41:19;;;;;;;6.03;5.10;;;;;;;5.97;81.50;97707.41;2096840;84;25808;-81
2020/12/29 03:44:20;;;;;;;6.00;5.40;;;;;;;5.98;81.21;97702.50;2097498;84;25726;-80
2020/12/29 03:47:21;;;;;;;6.65;5.47;;;;;;;6.01;80.72;97697.05;2099203;84;25811;-80
2020/12/29 03:50:23;;;;;;;7.85;5.08;;;;;;;6.01;80.87;97693.55;2096593;84;27533;-80
2020/12/29 03:53:24;;;;;;;5.75;5.25;;;;;;;6.01;80.68;97690.90;2096586;84;26035;-80
2020/12/29 03:56:25;;;;;;;5.58;4.83;;;;;;;6.08;80.73;97688.23;2096714;84;25843;-80
2020/12/29 03:59:26;;;;;;;6.92;5.62;;;;;;;6.11;80.20;97680.11;2096701;84;25821;-80
2020/12/29 04:02:28;;;;;;;5.47;4.97;;;;;;;6.07;80.48;97658.77;2096657;84;25717;-79
2020/12/29 04:05:30;;;;;;;5.92;4.87;;;;;;;6.04;80.58;97671.72;2096618;84;27726;-78
2020/12/29 04:08:31;;;;;;;5.62;4.72;;;;;;;6.07;80.52;97670.66;2096701;84;25784;-78
2020/12/29 04:11:33;;;;;;;5.20;4.67;;;;;;;6.06;80.44;97665.86;2096685;84;25852;-78
2020/12/29 04:14:34;;;;;;;6.75;4.87;;;;;;;6.06;80.36;97668.99;2096626;84;25836;-78
2020/12/29 04:17:38;;;;;;;5.05;4.60;;;;;;;6.03;80.49;97658.60;2096619;84;25770;-78
2020/12/29 04:20:39;;;;;;;5.70;5.20;;;;;;;6.07;80.24;97660.09;2095684;84;27929;-80
2020/12/29 04:23:40;;;;;;;5.03;4.45;;;;;;;6.08;80.39;97665.75;2096620;84;25854;-80
2020/12/29 04:26:43;;;;;;;5.42;4.90;;;;;;;6.14;79.94;97649.48;2096567;84;26648;-78
2020/12/29 04:29:44;;;;;;;5.83;4.50;;;;;;;6.17;79.55;97659.88;2096614;84;25808;-78
2020/12/29 04:32:48;;;;;;;5.67;5.17;;;;;;;6.19;79.26;97657.11;2082976;83;25866;-77
2020/12/29 04:35:49;;;;;;;5.30;4.80;;;;;;;6.14;79.52;97656.09;2066272;84;27483;-80
2020/12/29 04:38:50;;;;;;;5.30;4.80;;;;;;;6.18;79.12;97636.44;2072656;84;25772;-79
2020/12/29 04:41:53;;;;;;;4.72;4.20;;;;;;;6.20;79.10;97655.69;2079636;84;25882;-79
2020/12/29 04:44:54;;;;;;;6.03;4.65;;;;;;;6.30;78.58;97645.83;2096731;84;25796;-78
2020/12/29 04:47:56;;;;;;;4.58;4.17;;;;;;;6.30;78.86;97647.15;2092059;84;25992;-79
2020/12/29 04:51:07;;;;;;;6.35;5.10;;;;;;;6.36;78.25;97644.09;2085252;84;27499;-79
2020/12/29 04:54:10;;;;;;;5.47;4.97;;;;;;;6.38;78.03;97641.70;2098774;83;25847;-78
2020/12/29 04:57:12;;;;;;;5.33;4.62;;;;;;;6.39;78.22;97634.64;2077248;84;26187;-78
2020/12/29 05:00:13;;;;;;;4.62;4.22;;;;;;;6.36;78.36;97625.56;2093543;84;25927;-78
2020/12/29 05:03:14;;;;;;;6.47;4.85;;;;;;;6.39;78.06;97628.02;2104154;84;25843;-78
2020/12/29 05:06:16;;;;;;;5.83;4.30;;;;;;;6.39;78.36;97625.38;2102701;84;27457;-78
2020/12/29 05:09:20;;;;;;;4.92;3.95;;;;;;;6.36;78.74;97623.79;2106855;84;25782;-78
2020/12/29 05:12:22;;;;;;;5.17;4.67;;;;;;;6.35;79.27;97631.80;2101613;84;26130;-77
2020/12/29 05:15:23;;;;;;;4.40;4.00;;;;;;;6.41;78.93;97617.33;2098613;84;25841;-78
2020/12/29 05:18:26;;;;;;;6.72;4.90;;;;;;;6.39;79.20;97613.47;2101612;84;25813;-78
2020/12/29 05:21:28;;;;;;;4.95;4.45;;;;;;;6.37;79.72;97614.03;2099779;84;27875;-77
2020/12/29 05:24:29;;;;;;;5.15;4.67;;;;;;;6.34;79.91;97610.30;2101478;84;25750;-77
2020/12/29 05:27:38;;;;;;;4.90;4.40;;;;;;;6.32;79.88;97608.22;2098976;81;122452;-76
2020/12/29 05:30:40;;;;;;;4.53;4.12;;;;;;;6.31;80.09;97609.16;2104787;83;102099;-77
2020/12/29 05:33:42;;;;;;;4.95;4.45;;;;;;;6.26;80.42;97605.98;2106526;83;25843;-77
2020/12/29 05:36:44;;;;;;;4.42;4.10;;;;;;;6.24;80.56;97606.06;2105326;84;27486;-78
2020/12/29 05:39:45;;;;;;;5.22;4.42;;;;;;;6.19;81.17;97606.40;2105878;84;25345;-78
2020/12/29 05:42:48;;;;;;;4.12;3.70;;;;;;;6.15;81.23;97603.56;2105628;84;26717;-78
2020/12/29 05:45:50;;;;;;;4.95;4.42;;;;;;;6.18;81.67;97602.52;2105883;83;25815;-78
2020/12/29 05:48:57;;;;;;;4.55;4.15;;;;;;;6.24;81.17;97600.77;2105891;84;25889;-78
2020/12/29 05:51:59;;;;;;;5.05;4.33;;;;;;;6.28;80.97;97597.45;2105967;83;28119;-77
2020/12/29 05:55:02;;;;;;;5.42;4.47;;;;;;;6.34;81.10;97601.03;2105948;84;26134;-77
2020/12/29 05:58:11;;;;;;;4.12;3.72;;;;;;;6.31;81.36;97588.00;2105870;83;26019;-77
2020/12/29 06:01:12;;;;;;;4.85;4.03;;;;;;;6.31;80.93;97595.45;2105954;84;26456;-77
2020/12/29 06:04:14;;;;;;;4.08;3.60;;;;;;;6.33;81.23;97590.91;2105934;84;25992;-79
2020/12/29 06:07:18;;;;;;;4.25;3.75;;;;;;;6.35;80.76;97590.80;2106084;84;27629;-79
2020/12/29 06:10:20;;;;;;;5.58;4.40;;;;;;;6.35;80.89;97581.53;2081919;84;25800;-79
2020/12/29 06:13:27;;;;;;;6.10;3.87;;;;;;;6.37;80.56;97575.67;2105610;83;26178;-78
2020/12/29 06:16:32;;;;;;;5.47;3.98;;;;;;;6.37;81.01;97573.89;2104988;83;25889;-78
2020/12/29 06:19:37;;;;;;;5.53;4.40;;;;;;;6.41;80.93;97562.63;2105845;84;25803;-79
2020/12/29 06:22:41;;;;;;;5.00;4.05;;;;;;;6.45;81.12;97569.38;2103231;84;27672;-79
2020/12/29 06:25:45;;;;;;;4.60;4.20;;;;;;;6.42;81.56;97566.94;2106048;84;25772;-79
2020/12/29 06:28:50;;;;;;;4.00;3.62;;;;;;;6.39;81.63;97567.16;2105993;84;25810;-73
2020/12/29 06:31:51;;;;;;;4.90;3.83;;;;;;;6.40;81.53;97566.22;2106127;84;26021;-79
2020/12/29 06:34:52;;;;;;;4.47;3.92;;;;;;;6.42;81.26;97567.42;2106109;83;26023;-79
2020/12/29 06:38:17;;;;;;;4.35;3.95;;;;;;;6.41;82.25;97565.73;2105935;84;28253;-79
2020/12/29 06:41:20;;;;;;;4.53;4.12;;;;;;;6.42;83.55;97561.64;2106140;83;25839;-78
2020/12/29 06:44:21;;;;;;;4.45;3.92;;;;;;;6.38;85.53;97558.85;2105997;84;26646;-79
2020/12/29 06:47:28;;;;;;;4.80;4.15;;;;;;;6.34;87.04;97549.44;2105283;84;25830;-79
2020/12/29 06:50:32;;;;;;;4.75;3.95;;;;;;;6.37;87.19;97554.50;2109023;84;25791;-79
2020/12/29 06:53:33;;;;;;;4.60;4.20;;;;;;;6.35;88.09;97544.49;2090970;84;27632;-79
2020/12/29 06:56:38;;;;;;;4.90;4.15;;;;;;;6.31;89.28;97545.67;2064991;86;25898;-80
2020/12/29 06:59:41;;;;;;;4.30;3.90;;;;;;;6.25;90.24;97536.34;2053036;86;26759;-79
2020/12/29 07:02:49;;;;;;;5.58;4.05;;;;;;;6.20;91.03;97525.23;2064882;85;25999;-79
2020/12/29 07:05:50;;;;;;;4.95;4.10;;;;;;;6.14;91.78;97529.13;2062276;86;25849;-78
2020/12/29 07:08:55;;;;;;;4.80;4.25;;;;;;;6.13;92.39;97530.08;2062171;86;27549;-78
2020/12/29 07:12:06;;;;;;;4.80;4.28;;;;;;;6.17;92.79;97528.94;2061691;86;25770;-78
2020/12/29 07:15:07;;;;;;;5.37;4.87;;;;;;;6.16;93.76;97528.56;2061945;86;26039;-79
2020/12/29 07:18:10;;;;;;;5.95;4.67;;;;;;;6.14;94.58;97527.81;2062225;86;26256;-78
2020/12/29 07:21:28;;;;;;;4.87;4.47;;;;;;;6.13;94.74;97536.69;2062183;86;25993;-78
2020/12/29 07:24:30;;;;;;;6.65;4.75;;;;;;;6.05;95.71;97530.61;2062138;86;28313;-79
2020/12/29 07:27:32;;;;;;;5.53;5.03;;;;;;;6.00;96.66;97527.89;2040646;86;25874;-79
2020/12/29 07:30:34;;;;;;;5.15;4.67;;;;;;;5.99;97.41;97531.02;2062118;86;25917;-80
2020/12/29 07:33:41;;;;;;;6.85;5.35;;;;;;;5.90;98.41;97531.14;2062178;86;25714;-79
2020/12/29 07:36:49;;;;;;;5.90;5.30;;;;;;;5.88;99.44;97525.09;2060571;86;25904;-80
2020/12/29 07:39:50;;;;;;;6.25;5.12;;;;;;;5.84;100.00;97522.30;2062074;86;28125;-79
2020/12/29 07:42:52;;;;;;;6.58;5.53;;;;;;;5.87;100.00;97522.08;2062260;86;25846;-79
2020/12/29 07:45:53;;;;;;;7.03;5.85;;;;;;;5.89;100.00;97521.97;2062122;86;26305;-79
2020/12/29 07:48:55;;;;;;;6.17;5.65;;;;;;;5.95;100.00;97527.33;2062151;86;25886;-79
2020/12/29 07:51:56;;;;;;;6.35;5.20;;;;;;;5.98;100.00;97528.46;2062083;86;26198;-79
2020/12/29 07:55:13;;;;;;;6.65;5.28;;;;;;;5.87;100.00;97527.86;2061337;84;28317;-79
2020/12/29 07:58:15;;;;;;;5.87;5.33;;;;;;;5.81;100.00;97534.88;2061273;86;25782;-79
2020/12/29 08:01:16;;;;;;;8.80;6.05;;;;;;;5.75;100.00;97536.12;2061226;86;25883;-78
2020/12/29 08:04:30;;;;;;;5.50;4.90;;;;;;;5.74;100.00;97536.58;2061264;86;25365;-79
2020/12/29 08:07:31;;;;;;;5.40;4.58;;;;;;;5.75;100.00;97538.27;2061258;86;25722;-79
2020/12/29 08:10:38;;;;;;;6.08;5.47;;;;;;;5.78;100.00;97540.34;2061320;86;27782;-78
2020/12/29 08:13:40;;;;;;;7.65;5.87;;;;;;;5.84;100.00;97538.16;2061433;86;25637;-79
2020/12/29 08:16:41;;;;;;;6.15;5.50;;;;;;;5.85;100.00;97542.96;2061139;86;26527;-79
2020/12/29 08:19:42;;;;;;;7.92;7.08;;;;;;;5.88;100.00;97539.64;2061264;86;25786;-78
2020/12/29 08:22:45;;;;;;;6.78;6.08;;;;;;;5.82;100.00;97541.83;2061227;86;25787;-78
2020/12/29 08:26:00;;;;;;;6.60;5.97;;;;;;;5.76;100.00;97541.78;2061114;86;27917;-79
2020/12/29 08:29:04;;;;;;;7.40;6.70;;;;;;;5.74;100.00;97542.34;2061118;86;25731;-78
2020/12/29 08:32:09;;;;;;;8.38;5.90;;;;;;;5.71;100.00;97541.22;2061236;86;26091;-79
2020/12/29 08:35:12;;;;;;;7.92;6.75;;;;;;;5.70;100.00;97533.77;2061542;86;25892;-79
2020/12/29 08:38:43;;;;;;;7.30;6.20;;;;;;;5.68;100.00;97534.83;2061304;86;26308;-79
2020/12/29 08:41:57;;;;;;;7.62;6.47;;;;;;;5.68;100.00;97531.70;2061454;86;28407;-80
2020/12/29 08:45:00;;;;;;;6.10;5.50;;;;;;;5.74;100.00;97525.16;2061316;86;25825;-79
2020/12/29 08:48:01;;;;;;;6.72;5.42;;;;;;;5.64;100.00;97539.47;2061238;86;25960;-80
2020/12/29 08:51:20;;;;;;;6.42;5.35;;;;;;;5.61;100.00;97541.46;2061299;86;25703;-78
2020/12/29 08:54:21;;;;;;;6.70;5.85;;;;;;;5.66;100.00;97545.51;2061192;84;25779;-78
2020/12/29 08:57:27;;;;;;;6.70;5.12;;;;;;;5.69;100.00;97554.54;2061172;86;27567;-73
2020/12/29 09:00:30;;;;;;;7.05;5.67;;;;;;;5.70;100.00;97552.77;2061280;86;25821;-73
2020/12/29 09:03:31;;;;;;;5.37;4.80;;;;;;;5.73;100.00;97557.83;2061144;86;25771;-72
2020/12/29 09:06:33;;;;;;;5.20;4.70;;;;;;;5.71;100.00;97552.66;2061344;86;33280;-72
2020/12/29 09:09:54;;;;;;;4.53;4.12;;;;;;;5.68;100.00;97554.16;2061093;86;25905;-72
2020/12/29 09:12:55;;;;;;;6.28;4.22;;;;;;;5.68;100.00;97543.59;2061233;86;26642;-73
2020/12/29 09:16:13;;;;;;;5.60;5.00;;;;;;;5.73;100.00;97538.01;2061237;86;35469;-73
2020/12/29 09:19:14;;;;;;;4.67;3.60;;;;;;;5.75;100.00;97531.66;2061232;86;28035;-73
2020/12/29 09:22:15;;;;;;;5.40;4.53;;;;;;;5.81;100.00;97539.67;2061325;86;33663;-73
2020/12/29 09:25:32;;;;;;;4.43;3.53;;;;;;;5.86;100.00;97539.37;2061049;86;25879;-73
2020/12/29 09:28:33;;;;;;;5.00;3.30;;;;;;;5.92;100.00;97531.52;2061221;86;28405;-73
2020/12/29 09:31:34;;;;;;;5.50;4.07;;;;;;;5.90;100.00;97533.78;2061192;86;35263;-74
2020/12/29 09:34:35;;;;;;;3.07;2.30;;;;;;;5.93;100.00;97527.89;2061277;86;31060;-73
2020/12/29 09:37:36;;;;;;;2.83;2.60;;;;;;;5.92;100.00;97530.20;2061258;86;33096;-73
2020/12/29 09:40:37;;;;;;;4.33;2.63;;;;;;;5.96;100.00;97533.00;2061289;86;26340;-73
2020/12/29 09:43:38;;;;;;;3.00;2.65;;;;;;;5.94;100.00;97541.49;2061233;86;28395;-73
2020/12/29 09:46:39;;;;;;;3.00;2.75;;;;;;;5.94;100.00;97540.17;2061408;86;25780;-73
2020/12/29 09:49:40;;;;;;;3.30;2.83;;;;;;;5.89;100.00;97543.98;2061444;86;25847;-73
2020/12/29 09:52:41;;;;;;;2.40;2.20;;;;;;;5.90;100.00;97547.46;2061734;86;33590;-73
2020/12/29 09:55:42;;;;;;;2.90;2.37;;;;;;;5.90;100.00;97565.52;2063380;84;26143;-72
2020/12/29 09:58:43;;;;;;;3.07;2.70;;;;;;;5.93;100.00;97571.52;2062195;86;27486;-73
2020/12/29 10:01:48;;;;;;;3.00;2.50;;;;;;;5.93;100.00;97564.45;2061803;86;34915;-73
2020/12/29 10:04:49;;;;;;;3.05;2.50;;;;;;;5.90;100.00;97578.73;2061232;86;26742;-73
2020/12/29 10:07:50;;;;;;;2.92;2.17;;;;;;;5.88;100.00;97603.09;2061270;86;25740;-73
2020/12/29 10:10:51;;;;;;;2.85;2.30;;;;;;;5.85;100.00;97603.28;2061224;86;25824;-72
2020/12/29 10:13:52;;;;;;;2.27;2.07;;;;;;;5.87;100.00;97613.29;2061195;86;28458;-73
2020/12/29 10:16:53;;;;;;;1.70;1.60;;;;;;;5.77;100.00;97620.14;2061224;86;35483;-72
2020/12/29 10:19:56;;;;;;;2.97;2.20;;;;;;;5.72;100.00;97639.39;2039760;86;30919;-73
2020/12/29 10:22:57;;;;;;;3.62;2.17;;;;;;;5.68;100.00;97658.56;2061288;86;25795;-73
2020/12/29 10:25:57;;;;;;;4.08;2.50;;;;;;;5.54;100.00;97667.38;2061115;86;25787;-73
2020/12/29 10:28:59;;;;;;;2.77;2.13;;;;;;;5.45;100.00;97679.84;2061164;86;27560;-73
2020/12/29 10:32:00;;;;;;;3.08;2.45;;;;;;;5.39;100.00;97677.59;2040920;86;100193;-73
2020/12/29 10:35:01;;;;;;;7.67;5.60;;;;;;;5.33;100.00;97692.50;2019666;88;31007;-73
2020/12/29 10:38:02;;;;;;;2.85;2.42;;;;;;;5.12;100.00;97691.55;2019773;88;25865;-73
2020/12/29 10:41:03;;;;;;;3.40;2.60;;;;;;;5.02;100.00;97704.47;2019695;86;25774;-74
2020/12/29 10:44:06;;;;;;;2.97;2.50;;;;;;;4.89;100.00;97725.47;2019689;88;27493;-73
2020/12/29 10:47:07;;;;;;;3.10;2.62;;;;;;;4.81;100.00;97712.36;2019656;88;25822;-73
2020/12/29 10:50:08;;;;;;;2.70;2.10;;;;;;;4.64;100.00;97741.89;2019601;88;30936;-73
2020/12/29 10:53:09;;;;;;;2.27;2.00;;;;;;;4.58;100.00;97744.41;2019809;88;33205;-73
2020/12/29 10:56:10;;;;;;;3.23;2.30;;;;;;;4.52;100.00;97754.00;2045566;85;26191;-74
2020/12/29 10:59:12;;;;;;;2.75;1.92;;;;;;;4.34;100.00;97769.58;2051373;86;27511;-74
2020/12/29 11:02:13;;;;;;;3.55;2.77;;;;;;;4.30;100.00;97784.23;2051371;86;25904;-73
2020/12/29 11:05:14;;;;;;;3.00;2.47;;;;;;;4.29;100.00;97802.34;2051444;86;30987;-72
2020/12/29 11:08:15;;;;;;;3.00;2.30;;;;;;;4.19;100.00;97805.58;2051464;86;33125;-73
2020/12/29 11:11:18;;;;;;;3.17;2.30;;;;;;;4.14;100.00;97813.73;2051402;86;26075;-73
2020/12/29 11:14:19;;;;;;;4.58;3.35;;;;;;;4.17;100.00;97834.64;2051350;86;27458;-73
2020/12/29 11:17:22;;;;;;;3.80;3.30;;;;;;;4.20;100.00;97845.04;2051381;86;35388;-74
2020/12/29 11:20:23;;;;;;;4.75;3.92;;;;;;;4.21;100.00;97849.38;2051333;86;26809;-73
2020/12/29 11:23:24;;;;;;;4.87;4.27;;;;;;;4.18;100.00;97871.11;2051556;86;33695;-75
2020/12/29 11:26:25;;;;;;;5.00;4.50;;;;;;;4.22;100.00;97874.83;2051507;86;25892;-73
2020/12/29 11:29:26;;;;;;;6.03;5.40;;;;;;;4.22;100.00;97877.46;2051578;86;28090;-73
2020/12/29 11:32:26;;;;;;;18.73;11.23;;;;;;;4.23;100.00;97894.95;2051555;86;35464;-73
2020/12/29 11:35:28;;;;;;;7.37;6.33;;;;;;;4.28;100.00;97914.05;2051469;86;30933;-74
2020/12/29 11:38:29;;;;;;;8.00;6.60;;;;;;;4.22;100.00;97914.38;2051414;85;33711;-74
2020/12/29 11:41:29;;;;;;;8.05;6.53;;;;;;;4.25;100.00;97927.86;2051889;83;26447;-73
2020/12/29 11:44:30;;;;;;;8.37;7.43;;;;;;;4.30;100.00;97933.73;2082433;82;152916;-74
2020/12/29 11:47:31;;;;;;;7.30;6.60;;;;;;;4.36;100.00;97948.39;2089333;85;34838;-74
2020/12/29 11:50:32;;;;;;;9.53;7.90;;;;;;;4.40;100.00;97948.59;2089431;85;30979;-74
2020/12/29 11:53:33;;;;;;;9.25;7.60;;;;;;;4.45;100.00;97974.25;2089451;85;25871;-73
2020/12/29 11:56:34;;;;;;;12.47;10.40;;;;;;;4.46;100.00;97977.28;2082776;85;26281;-74
2020/12/29 11:59:39;;;;;;;15.03;13.43;;;;;;;4.47;100.00;98000.93;2081893;85;26030;-75
2020/12/29 12:02:40;;;;;;;10.58;9.25;;;;;;;4.51;100.00;97998.98;2088851;85;25816;-74
2020/12/29 12:05:41;;;;;;;9.10;7.97;;;;;;;4.55;100.00;98015.50;2089522;85;31025;-76
2020/12/29 12:08:42;;;;;;;10.53;8.20;;;;;;;4.55;100.00;98026.05;2089881;85;33617;-75
2020/12/29 12:11:43;;;;;;;8.83;7.78;;;;;;;4.56;100.00;98018.08;2089659;85;25793;-76
2020/12/29 12:14:44;;;;;;;11.83;10.07;;;;;;;4.61;100.00;98033.19;2089539;84;25798;-75
2020/12/29 12:17:45;;;;;;;11.80;10.65;;;;;;;4.61;100.00;98045.55;2089605;85;25692;-75
2020/12/29 12:20:50;;;;;;;17.13;12.60;;;;;;;4.63;100.00;98056.41;2089558;85;30914;-77
2020/12/29 12:23:50;;;;;;;10.43;9.33;;;;;;;4.68;100.00;98070.67;2089631;85;25854;-76
2020/12/29 12:26:52;;;;;;;11.63;9.97;;;;;;;4.65;100.00;98084.50;2089445;85;25769;-76
2020/12/29 12:29:53;;;;;;;9.70;8.70;;;;;;;4.65;100.00;98077.91;2089453;85;27704;-77
2020/12/29 12:32:54;;;;;;;9.63;8.63;;;;;;;4.69;100.00;98096.11;2089188;85;41880;-77
2020/12/29 12:35:55;;;;;;;9.20;8.30;;;;;;;4.67;100.00;98103.72;2089469;85;31096;-74
2020/12/29 12:38:56;;;;;;;10.10;7.65;;;;;;;4.68;100.00;98100.16;2089557;85;25809;-74
2020/12/29 12:42:07;;;;;;;10.03;8.73;;;;;;;4.67;100.00;98103.27;2089364;85;25812;-73
2020/12/29 12:45:08;;;;;;;9.35;8.15;;;;;;;4.67;100.00;98102.41;2086561;85;25980;-75
2020/12/29 12:48:09;;;;;;;12.17;9.13;;;;;;;4.70;100.00;98106.22;2089400;85;34987;-74
2020/12/29 12:51:13;;;;;;;11.03;9.53;;;;;;;4.66;100.00;98139.83;2089397;85;31104;-74
2020/12/29 12:54:15;;;;;;;9.28;7.92;;;;;;;4.69;100.00;98152.84;2089539;85;25774;-74
2020/12/29 12:57:16;;;;;;;10.03;8.43;;;;;;;4.63;100.00;98154.48;2113390;83;25736;-74
2020/12/29 13:00:17;;;;;;;10.20;8.55;;;;;;;4.60;100.00;98172.66;2115073;84;27353;-73
2020/12/29 13:03:18;;;;;;;10.35;8.80;;;;;;;4.66;100.00;98180.73;2116910;84;25283;-73
2020/12/29 13:06:25;;;;;;;10.03;8.23;;;;;;;4.62;100.00;98196.32;2114514;84;31038;-74
2020/12/29 13:09:26;;;;;;;8.05;7.15;;;;;;;4.61;100.00;98206.04;2114114;84;25770;-74
2020/12/29 13:12:27;;;;;;;8.23;6.80;;;;;;;4.65;100.00;98209.85;2114368;84;25952;-74
2020/12/29 13:15:28;;;;;;;8.45;7.65;;;;;;;4.66;100.00;98219.00;2114427;83;27653;-74
2020/12/29 13:18:29;;;;;;;8.87;6.87;;;;;;;4.68;100.00;98218.47;2114480;84;34969;-74
2020/12/29 13:21:30;;;;;;;8.60;6.80;;;;;;;4.67;99.24;98233.04;2114496;84;31405;-73
2020/12/29 13:24:31;;;;;;;8.88;7.17;;;;;;;4.68;98.07;98246.63;2114546;84;26362;-73
2020/12/29 13:27:31;;;;;;;8.47;6.53;;;;;;;4.72;98.21;98252.16;2114509;84;26034;-74
2020/12/29 13:30:32;;;;;;;9.13;7.13;;;;;;;4.75;98.08;98246.27;2114379;84;27478;-74
2020/12/29 13:33:34;;;;;;;8.37;6.60;;;;;;;4.92;95.99;98236.16;2114461;84;34921;-74
2020/12/29 13:36:36;;;;;;;8.13;6.25;;;;;;;4.86;95.26;98252.31;2114519;84;25680;-73
2020/12/29 13:39:38;;;;;;;7.12;5.75;;;;;;;4.83;96.09;98259.06;2114542;84;26212;-74
2020/12/29 13:42:38;;;;;;;7.00;6.28;;;;;;;4.87;95.47;98271.64;2114376;84;25872;-72
2020/12/29 13:45:39;;;;;;;8.30;6.43;;;;;;;4.83;95.99;98268.30;2114493;84;27835;-73
2020/12/29 13:48:42;;;;;;;7.70;6.50;;;;;;;4.79;96.66;98278.64;2114403;84;34807;-74
2020/12/29 13:51:43;;;;;;;10.82;7.05;;;;;;;4.77;96.83;98282.66;2114491;84;25864;-75
2020/12/29 13:54:44;;;;;;;9.67;7.90;;;;;;;4.84;97.78;98288.49;2108526;84;33239;-74
2020/12/29 13:57:45;;;;;;;10.47;8.60;;;;;;;4.87;98.06;98300.68;2114596;82;26335;-73
2020/12/29 14:00:46;;;;;;;20.90;13.68;;;;;;;5.14;96.38;98304.17;2114376;84;27458;-74
2020/12/29 14:03:48;;;;;;;21.02;13.75;;;;;;;4.88;97.68;98314.27;2114482;84;25858;-73
2020/12/29 14:06:52;;;;;;;17.80;11.90;;;;;;;4.85;98.07;98316.61;2114528;84;31400;-73
2020/12/29 14:09:53;;;;;;;10.98;8.18;;;;;;;4.85;98.93;98327.16;2114814;84;25795;-74
2020/12/29 14:12:55;;;;;;;10.27;8.13;;;;;;;4.85;97.77;98328.48;2114482;84;26348;-74
2020/12/29 14:15:56;;;;;;;12.55;8.35;;;;;;;4.91;98.43;98336.55;2114603;83;27531;-73
2020/12/29 14:18:57;;;;;;;10.17;8.30;;;;;;;4.87;99.32;98338.48;2114491;84;34853;-74
2020/12/29 14:21:58;;;;;;;12.80;9.07;;;;;;;4.84;99.62;98343.93;2114573;84;31291;-74